Portada
METAR-TAF:

METAR-TAF

Aeroports :

Rajahmundry, Índia

latitud: 17-06-37N, longitud: 81-49-06E, altitud: 46 m

Observació

L'informe es va fer fa 22 minuts, a les 04:30 UTC
Vent 9 kt del Oest
Temperatura 29°C
Humitat 58%
Pressió 1014 hPa
Visibilitat: 6000 m
Núvols disperses a una alçada de 2000 ft

METAR: VORY 230430Z 28009KT 6000 SCT020 29/20 Q1014 NOSIG

Hora: 10:22 (04:52 UTC)

Pronòstic

L'informe es va fer fa 2 hores i 52 minuts, a les 02:00 UTC
Pronòstic vàlid del 23 a les 03 UTC al 23 a les 12 UTC
Vent 10 kt del Sud/Sud-Oest
Visibilitat: 6000 m
Escasses núvols a una alçada de 2000 ft
Núvols disperses a una alçada de 2500 ft

TAF: VORY 230200Z 2303/2312 20010KT 6000 FEW020 SCT025

Observacions i pronòstics meteorològics de més de 4000 aeroports (METAR i TAF).

Les estacions disponibles són els punts grocs i vermells al mapa.

Posi el ratolí al punt desitjat per veure el nom de l'estació.

Feu clic per veure les observacions i els pronòstics meteorològics.

Per canviar el mapa: feu clic els botons verds amb una creu de color negre per apropar; al botó verd amb un guió per allunyar la imatge; o en les fletxes verdes per a mapes adjacents.


METAR-TAF: